Langley Air Force Base
KLFI : now visible

Airfield :











YOU CAN JOIN US ON...

 
LOGIN :

Register | Disclaimer

   EN    FR    IT 

 









Legend :    VFR   Marginal VFR   IFR   Intensive IFR   Very Intensive IFR
Visi :
Ceiling :
>= 8 km
>= 3000ft
5 to 8 km
1000 to 3000 ft
1500m to 5 km
500 to 1000 ft
800 to 1500m
200 to 500 ft
< 800m
< 200 ft
Symbols :   Thunderstorms  Fog  Heavy snow  Heavy precipitations  Wind > 20 kt






- Airport Elevation : 11 ft


KLFI - Langley Air Force Base

CURRENT METAR :
  • 142011Z 24011KT 10SM BKN015 13/12 A2940 RMK AO2A SLP962 $

EXPIRED METARs :
  • 141956Z 24012KT 10SM BKN014 13/12 A2940 RMK AO2A SLP962 T01300119 $
  • 141856Z 24014KT 10SM OVC012 13/13 A2941 RMK AO2A SLP966 T01300127 $
  • 141756Z 23019KT 10SM OVC011 13/13 A2940 RMK AO2A PK WND 22027/1656 SLP962 T01270127 10130 20104 57018 $

TAF TAF KLFI
Valid from the 14 at 02:00 until the 15 at 08:00 UTC


140200Z 1402/1508 35012KT 3200 SHRA OVC010 510023 QNH2950INS
BECMG 1404/1405 VRB06KT 3200 -SHRA BR OVC007 QNH2948INS
BECMG 1417/1418 24015G25KT 9999 NSW SCT005 BKN020 510063 QNH2940INS
BECMG 1423/1424 26015G20KT 9999 FEW020 SCT060 510202 QNH2951INS TX13/1417Z TN11/1413Z LAST NO AMDS AFT 1403 NEXT 1610



MET'MAP, your aeronautical weather chart ! - Copyright ORBIFLY December 2007 - Disclaimer

ORBIFLY MET'MAP TEAM :

Programming & Development : Alexandra Zaïnal
Concept & original design : Baudouin d'Aumeries
Assistance for programming : Marc-Olivier Méhu
Technical & hardware support : Manuel Goepfert

Contact : metmap@orbifly.com




SOURCES & CREDITS :

   NOAA       Earth
Advisory